Hemlock, New York
Current Conditions -  °F | °C
As of 10:54 PM on Friday 24 Oct 2014 (Local Time) from KDSV Reporting Station
Clear Clear  
Wind Chill:   Ceiling: Unl
Heat Index:   Visibility: 10mi
Dew Point:   Wind: 5mph
Humidity: 76%   Direction: 150°SSE
Pressure: 29.96"   Gusts: NA
Location:  42.79°N, 77.61°W
Report Text: KDSV 250254Z AUTO 15004KT 10SM CLR 06/02 A2996 RMK AO2 SLP158 T00560017 50001
Loading
Personal Weather Stations






























Interactive Weather Map
Tropical Storm Tracking
New forecast layout! Learn more

10-Day Weather Forecast

Advertisements
Track Severe Weather on mobile